createdAt,value
2019-01-05T00:00:52.938Z,7.40
2019-01-05T00:03:41.952Z,7.28
2019-01-05T00:06:29.652Z,10.32
2019-01-05T00:09:05.844Z,8.03
2019-01-05T00:11:52.457Z,7.83
2019-01-05T00:14:52.248Z,6.60
2019-01-05T00:17:52.510Z,8.58
2019-01-05T00:20:47.514Z,5.80
2019-01-05T00:23:37.199Z,6.85
2019-01-05T00:26:23.323Z,5.20
2019-01-05T00:29:09.669Z,5.42
2019-01-05T00:31:55.767Z,5.42
2019-01-05T00:34:58.914Z,7.05
2019-01-05T00:37:44.653Z,4.50
2019-01-05T00:40:30.573Z,5.80
2019-01-05T00:43:28.450Z,4.67
2019-01-05T00:46:15.290Z,8.30
2019-01-05T00:49:20.106Z,6.60
2019-01-05T00:52:23.914Z,8.40
2019-01-05T00:55:10.966Z,10.45
2019-01-05T00:58:13.557Z,7.92
2019-01-05T01:01:06.614Z,6.10
2019-01-05T01:03:51.313Z,6.70
2019-01-05T01:06:36.914Z,6.00
2019-01-05T01:09:24.349Z,8.53
2019-01-05T01:12:10.354Z,8.03
2019-01-05T01:15:14.512Z,6.55
2019-01-05T01:18:04.941Z,7.53
2019-01-05T01:21:01.450Z,7.40
2019-01-05T01:23:51.578Z,7.83
2019-01-05T01:26:44.835Z,8.13
2019-01-05T01:29:31.408Z,7.23
2019-01-05T01:32:21.806Z,5.90
2019-01-05T01:35:07.830Z,7.53
2019-01-05T01:38:18.245Z,7.75
2019-01-05T01:41:05.793Z,9.08
2019-01-05T01:43:51.497Z,9.58
2019-01-05T01:46:37.570Z,6.62
2019-01-05T01:49:25.650Z,8.95
2019-01-05T01:52:12.341Z,6.90
2019-01-05T01:55:03.018Z,5.90
2019-01-05T01:57:56.651Z,7.95
2019-01-05T02:00:43.154Z,6.50
2019-01-05T02:03:32.361Z,7.22
2019-01-05T02:06:13.074Z,8.90
2019-01-05T02:09:04.505Z,5.37
2019-01-05T02:11:58.137Z,6.50
2019-01-05T02:14:54.665Z,9.98
2019-01-05T02:17:59.543Z,6.25
2019-01-05T02:20:58.306Z,6.45
2019-01-05T02:24:11.978Z,6.70
2019-01-05T02:27:33.542Z,12.10
2019-01-05T02:30:57.603Z,8.38
2019-01-05T02:34:11.917Z,6.40
2019-01-05T02:37:23.142Z,8.85
2019-01-05T02:40:17.513Z,8.38
2019-01-05T02:43:54.314Z,9.83
2019-01-05T02:47:18.161Z,9.13
2019-01-05T02:50:36.495Z,11.38
2019-01-05T02:53:49.451Z,8.47
2019-01-05T02:57:13.342Z,9.30
2019-01-05T03:00:43.551Z,10.95
2019-01-05T03:03:41.847Z,13.28
2019-01-05T03:06:56.481Z,9.53
2019-01-05T03:10:01.499Z,12.00
2019-01-05T03:13:13.446Z,13.45
2019-01-05T03:16:28.642Z,10.78
2019-01-05T03:19:49.427Z,12.95
2019-01-05T03:22:59.207Z,12.98
2019-01-05T03:25:53.870Z,15.23
2019-01-05T03:28:54.782Z,13.80
2019-01-05T03:32:07.266Z,13.65
2019-01-05T03:35:06.239Z,14.60
2019-01-05T03:38:29.294Z,16.52
2019-01-05T03:41:44.219Z,13.70
2019-01-05T03:44:47.918Z,12.88
2019-01-05T03:48:10.980Z,15.10
2019-01-05T03:51:11.290Z,16.87
2019-01-05T03:54:22.253Z,15.53
2019-01-05T03:57:26.317Z,15.63
2019-01-05T04:00:27.662Z,17.32
2019-01-05T04:03:58.240Z,17.45
2019-01-05T04:07:03.198Z,16.02
2019-01-05T04:10:07.621Z,17.57
2019-01-05T04:13:25.873Z,15.28
2019-01-05T04:16:41.752Z,14.78
2019-01-05T04:19:52.490Z,16.80
2019-01-05T04:23:31.798Z,15.87
2019-01-05T04:26:36.817Z,17.23
2019-01-05T04:29:27.030Z,16.60
2019-01-05T04:32:28.697Z,21.12
2019-01-05T04:35:40.098Z,17.62
2019-01-05T04:39:01.283Z,18.35
2019-01-05T04:42:16.554Z,18.52
2019-01-05T04:45:24.025Z,18.62
2019-01-05T04:48:40.950Z,14.68
2019-01-05T04:51:41.396Z,18.42
2019-01-05T04:55:01.509Z,15.03
2019-01-05T04:58:20.065Z,19.00
2019-01-05T05:01:31.216Z,18.62
2019-01-05T05:04:36.513Z,19.85
2019-01-05T05:08:01.205Z,20.30
2019-01-05T05:11:05.002Z,21.73
2019-01-05T05:14:08.977Z,18.57
2019-01-05T05:17:08.397Z,19.70
2019-01-05T05:20:17.431Z,17.37
2019-01-05T05:23:20.097Z,18.10
2019-01-05T05:26:35.083Z,18.85
2019-01-05T05:30:01.968Z,21.80
2019-01-05T05:33:16.795Z,21.87
2019-01-05T05:36:17.281Z,23.05
2019-01-05T05:39:30.479Z,19.87
2019-01-05T05:42:40.325Z,20.10
2019-01-05T05:45:44.008Z,19.45
2019-01-05T05:49:08.631Z,17.10
2019-01-05T05:52:11.559Z,23.52
2019-01-05T05:55:26.418Z,20.90
2019-01-05T05:58:49.331Z,20.17
2019-01-05T06:02:10.551Z,23.75
2019-01-05T06:05:20.750Z,18.30
2019-01-05T06:08:28.505Z,19.40
2019-01-05T06:11:24.721Z,18.87
2019-01-05T06:14:33.072Z,17.70
2019-01-05T06:17:51.777Z,19.37
2019-01-05T06:21:12.421Z,18.27
2019-01-05T06:24:35.174Z,15.90
2019-01-05T06:27:35.412Z,17.83
2019-01-05T06:30:50.586Z,22.35
2019-01-05T06:33:54.377Z,19.00
2019-01-05T06:37:02.637Z,14.47
2019-01-05T06:40:06.822Z,18.32
2019-01-05T06:43:20.321Z,19.12
2019-01-05T06:46:27.562Z,19.40
2019-01-05T06:49:48.666Z,18.90
2019-01-05T06:53:06.710Z,17.62
2019-01-05T06:56:15.908Z,19.87
2019-01-05T06:59:18.341Z,17.23
2019-01-05T07:02:24.956Z,21.75
2019-01-05T07:05:30.101Z,16.37
2019-01-05T07:08:41.385Z,16.00
2019-01-05T07:12:05.257Z,19.57
2019-01-05T07:15:29.349Z,17.00
2019-01-05T07:18:34.104Z,16.90
2019-01-05T07:22:01.286Z,17.82
2019-01-05T07:25:21.070Z,15.60
2019-01-05T07:28:37.899Z,19.07
2019-01-05T07:31:34.929Z,18.27
2019-01-05T07:34:50.109Z,20.50
2019-01-05T07:38:00.882Z,17.52
2019-01-05T07:41:05.490Z,20.80
2019-01-05T07:44:12.761Z,17.20
2019-01-05T07:47:06.887Z,14.15
2019-01-05T07:50:11.125Z,19.15
2019-01-05T07:53:16.108Z,17.92
2019-01-05T07:56:40.520Z,16.80
2019-01-05T07:59:48.750Z,12.95
2019-01-05T08:02:44.642Z,22.42
2019-01-05T08:05:44.461Z,20.48
2019-01-05T08:09:01.358Z,16.20
2019-01-05T08:12:09.442Z,16.15
2019-01-05T08:15:10.186Z,14.25
2019-01-05T08:18:28.097Z,15.48
2019-01-05T08:21:21.674Z,17.07
2019-01-05T08:24:39.472Z,18.25
2019-01-05T08:27:51.332Z,19.80
2019-01-05T08:31:04.945Z,15.38
2019-01-05T08:34:35.178Z,17.20
2019-01-05T08:37:42.707Z,17.77
2019-01-05T08:40:53.479Z,16.37
2019-01-05T08:43:57.581Z,18.23
2019-01-05T08:47:01.375Z,17.67
2019-01-05T08:50:10.444Z,15.40
2019-01-05T08:53:14.167Z,14.40
2019-01-05T08:56:37.536Z,15.18
2019-01-05T09:00:04.388Z,17.17
2019-01-05T09:03:34.027Z,16.97
2019-01-05T09:06:48.104Z,17.07
2019-01-05T09:10:05.423Z,15.65
2019-01-05T09:13:29.645Z,16.80
2019-01-05T09:16:43.941Z,14.93
2019-01-05T09:20:12.565Z,15.03
2019-01-05T09:23:17.622Z,18.98
2019-01-05T09:26:18.917Z,14.68
2019-01-05T09:29:24.515Z,21.68
2019-01-05T09:32:22.950Z,14.60
2019-01-05T09:35:44.244Z,17.90
2019-01-05T09:38:47.630Z,18.75
2019-01-05T09:42:05.801Z,24.45
2019-01-05T09:45:26.257Z,23.20
2019-01-05T09:48:41.333Z,22.30
2019-01-05T09:52:00.905Z,16.65
2019-01-05T09:55:15.785Z,18.80
2019-01-05T09:58:15.397Z,17.90
2019-01-05T10:01:41.465Z,19.48
2019-01-05T10:04:53.621Z,17.23
2019-01-05T10:07:53.550Z,19.02
2019-01-05T10:11:12.618Z,19.17
2019-01-05T10:14:17.330Z,19.33
2019-01-05T10:17:44.301Z,13.90
2019-01-05T10:20:55.206Z,15.78
2019-01-05T10:24:02.941Z,17.20
2019-01-05T10:27:18.853Z,18.10
2019-01-05T10:30:23.509Z,18.23
2019-01-05T10:33:31.322Z,16.80
2019-01-05T10:36:47.773Z,13.25
2019-01-05T10:39:54.374Z,14.85
2019-01-05T10:43:03.970Z,15.80
2019-01-05T10:46:12.141Z,21.35
2019-01-05T10:49:19.211Z,20.17
2019-01-05T10:52:17.617Z,14.98
2019-01-05T10:55:16.757Z,15.60
2019-01-05T10:58:20.900Z,18.20
2019-01-05T11:01:34.678Z,14.70
2019-01-05T11:04:48.669Z,19.57
2019-01-05T11:08:02.819Z,14.10
2019-01-05T11:11:11.825Z,17.67
2019-01-05T11:14:21.317Z,15.20
2019-01-05T11:17:32.046Z,16.37
2019-01-05T11:20:53.251Z,21.65
2019-01-05T11:24:11.241Z,17.82
2019-01-05T11:27:22.179Z,15.03
2019-01-05T11:30:26.796Z,17.48
2019-01-05T11:34:04.070Z,12.37
2019-01-05T11:37:02.793Z,13.45
2019-01-05T11:40:03.079Z,15.15
2019-01-05T11:43:06.733Z,16.27
2019-01-05T11:46:15.849Z,14.98
2019-01-05T11:49:08.616Z,14.63
2019-01-05T11:52:28.287Z,13.98
2019-01-05T11:55:44.723Z,12.63
2019-01-05T11:59:11.831Z,13.68
2019-01-05T12:02:19.602Z,12.25
2019-01-05T12:05:17.295Z,13.22
2019-01-05T12:08:20.898Z,14.93
2019-01-05T12:12:03.911Z,11.10
2019-01-05T12:15:01.625Z,12.13
2019-01-05T12:17:59.909Z,13.70
2019-01-05T12:21:23.883Z,11.15
2019-01-05T12:24:47.075Z,12.65
2019-01-05T12:28:11.437Z,47.13
2019-01-05T12:31:17.107Z,16.25
2019-01-05T12:34:34.951Z,16.97
2019-01-05T12:37:55.126Z,11.20
2019-01-05T12:41:01.998Z,13.78
2019-01-05T12:44:04.558Z,15.70
2019-01-05T12:47:28.485Z,16.48
2019-01-05T12:50:36.024Z,17.77
2019-01-05T12:53:44.078Z,15.35
2019-01-05T12:56:49.337Z,13.22
2019-01-05T13:00:03.467Z,16.80
2019-01-05T13:03:11.746Z,15.20
2019-01-05T13:06:20.330Z,13.72
2019-01-05T13:09:37.654Z,10.70
2019-01-05T13:12:38.700Z,14.83
2019-01-05T13:15:56.932Z,11.08
2019-01-05T13:19:02.130Z,15.32
2019-01-05T13:22:17.559Z,13.70
2019-01-05T13:25:21.584Z,11.63
2019-01-05T13:28:25.744Z,13.40
2019-01-05T13:31:56.249Z,13.35
2019-01-05T13:35:13.785Z,12.47
2019-01-05T13:38:37.858Z,11.95
2019-01-05T13:42:00.902Z,12.50
2019-01-05T13:45:34.402Z,12.33
2019-01-05T13:48:33.320Z,12.03
2019-01-05T13:51:40.247Z,12.90
2019-01-05T13:54:26.947Z,14.73
2019-01-05T13:57:15.573Z,12.25
2019-01-05T14:00:08.918Z,14.07
2019-01-05T14:02:57.294Z,12.78
2019-01-05T14:05:46.997Z,13.38
2019-01-05T14:08:46.820Z,13.38
2019-01-05T14:11:29.639Z,13.75
2019-01-05T14:14:10.776Z,12.13
2019-01-05T14:17:01.461Z,12.53
2019-01-05T14:19:41.579Z,11.40
2019-01-05T14:22:33.049Z,14.70
2019-01-05T14:25:20.189Z,10.58
2019-01-05T14:28:06.171Z,16.77
2019-01-05T14:30:52.445Z,13.38
2019-01-05T14:33:39.562Z,13.50
2019-01-05T14:36:20.638Z,13.97
2019-01-05T14:39:07.924Z,11.40
2019-01-05T14:41:54.845Z,14.28
2019-01-05T14:44:40.666Z,9.00
2019-01-05T14:47:28.397Z,12.65
2019-01-05T14:50:29.912Z,11.20
2019-01-05T14:53:15.714Z,15.43
2019-01-05T14:56:13.226Z,13.35
2019-01-05T14:59:14.863Z,12.50
2019-01-05T15:02:15.794Z,14.75
2019-01-05T15:05:01.606Z,12.63
2019-01-05T15:08:04.182Z,13.78
2019-01-05T15:10:51.193Z,11.10
2019-01-05T15:13:48.690Z,11.33
2019-01-05T15:16:41.641Z,12.73
2019-01-05T15:19:28.950Z,12.07
2019-01-05T15:22:22.082Z,12.60
2019-01-05T15:25:08.081Z,12.70
2019-01-05T15:27:54.197Z,13.93
2019-01-05T15:30:47.764Z,10.63
2019-01-05T15:33:35.183Z,11.93
2019-01-05T15:36:21.569Z,15.33
2019-01-05T15:39:02.418Z,14.75
2019-01-05T15:41:50.762Z,11.18
2019-01-05T15:44:43.402Z,8.73
2019-01-05T15:47:42.766Z,6.80
2019-01-05T15:50:31.113Z,5.70
2019-01-05T15:53:19.890Z,10.40
2019-01-05T15:56:11.197Z,12.50
2019-01-05T15:59:16.693Z,8.23
2019-01-05T16:02:02.426Z,7.90
2019-01-05T16:04:48.620Z,11.33
2019-01-05T16:07:40.016Z,18.90
2019-01-05T16:10:35.632Z,20.43
2019-01-05T16:13:23.198Z,8.73
2019-01-05T16:16:16.838Z,7.07
2019-01-05T16:19:03.875Z,9.73
2019-01-05T16:21:51.111Z,10.23
2019-01-05T16:24:41.070Z,8.28
2019-01-05T16:27:32.850Z,6.83
2019-01-05T16:30:18.877Z,8.28
2019-01-05T16:33:04.727Z,7.72
2019-01-05T16:35:50.990Z,6.70
2019-01-05T16:38:53.094Z,7.08
2019-01-05T16:41:38.834Z,5.55
2019-01-05T16:44:25.086Z,5.33
2019-01-05T16:47:11.650Z,7.37
2019-01-05T16:49:58.038Z,5.58
2019-01-05T16:52:53.503Z,6.87
2019-01-05T16:55:53.055Z,5.70
2019-01-05T16:58:39.156Z,5.42
2019-01-05T17:01:28.791Z,7.62
2019-01-05T17:04:14.654Z,7.72
2019-01-05T17:07:00.817Z,6.97
2019-01-05T17:09:42.159Z,8.75
2019-01-05T17:12:44.682Z,4.80
2019-01-05T17:15:34.869Z,6.62
2019-01-05T17:18:27.174Z,10.20
2019-01-05T17:21:13.412Z,7.33
2019-01-05T17:23:51.490Z,4.00
2019-01-05T17:26:44.842Z,3.08
2019-01-05T17:29:35.078Z,3.20
2019-01-05T17:32:40.847Z,3.00
2019-01-05T17:35:37.083Z,3.62
2019-01-05T17:38:23.428Z,3.40
2019-01-05T17:41:29.135Z,1.93
2019-01-05T17:44:10.086Z,3.65
2019-01-05T17:46:49.048Z,2.50
2019-01-05T17:49:39.253Z,3.72
2019-01-05T17:52:38.720Z,2.80
2019-01-05T17:55:41.208Z,1.87
2019-01-05T17:58:46.850Z,2.20
2019-01-05T18:01:35.217Z,2.03
2019-01-05T18:04:22.540Z,1.30
2019-01-05T18:07:16.024Z,1.00
2019-01-05T18:10:09.618Z,1.20
2019-01-05T18:12:55.752Z,14.03
2019-01-05T18:15:49.327Z,9.65
2019-01-05T18:18:34.234Z,6.95
2019-01-05T18:21:27.982Z,7.77
2019-01-05T18:24:14.284Z,7.95
2019-01-05T18:26:54.218Z,2.00
2019-01-05T18:29:58.341Z,2.72
2019-01-05T18:32:45.517Z,1.90
2019-01-05T18:35:32.680Z,2.40
2019-01-05T18:38:18.981Z,2.60
2019-01-05T18:41:04.849Z,9.65
2019-01-05T18:43:47.887Z,2.80
2019-01-05T18:46:34.187Z,2.10
2019-01-05T18:49:17.328Z,1.90
2019-01-05T18:52:03.683Z,3.33
2019-01-05T18:55:08.920Z,2.62
2019-01-05T18:57:58.371Z,1.82
2019-01-05T19:00:57.999Z,2.40
2019-01-05T19:03:48.601Z,2.87
2019-01-05T19:06:32.078Z,2.10
2019-01-05T19:09:17.777Z,1.80
2019-01-05T19:12:08.758Z,3.35
2019-01-05T19:14:52.769Z,1.77
2019-01-05T19:17:46.130Z,2.45
2019-01-05T19:20:32.167Z,2.20
2019-01-05T19:23:18.602Z,1.98
2019-01-05T19:26:04.658Z,1.40
2019-01-05T19:28:43.423Z,2.50
2019-01-05T19:31:33.310Z,3.30
2019-01-05T19:34:26.701Z,2.30
2019-01-05T19:37:13.204Z,2.25
2019-01-05T19:40:15.418Z,2.12
2019-01-05T19:43:03.575Z,1.90
2019-01-05T19:45:49.759Z,1.40
2019-01-05T19:48:40.861Z,1.70
2019-01-05T19:51:37.200Z,1.50
2019-01-05T19:54:27.685Z,2.00
2019-01-05T19:57:33.316Z,1.80
2019-01-05T20:00:25.819Z,4.07
2019-01-05T20:03:22.135Z,4.33
2019-01-05T20:06:25.245Z,3.45
2019-01-05T20:09:18.597Z,1.85
2019-01-05T20:12:05.934Z,3.70
2019-01-05T20:14:53.404Z,3.30
2019-01-05T20:17:39.437Z,2.50
2019-01-05T20:20:25.428Z,2.30
2019-01-05T20:23:12.813Z,3.15
2019-01-05T20:26:00.446Z,2.00
2019-01-05T20:28:50.677Z,3.27
2019-01-05T20:31:42.404Z,4.22
2019-01-05T20:34:29.788Z,2.35
2019-01-05T20:37:17.670Z,23.20
2019-01-05T20:40:20.431Z,34.03
2019-01-05T20:43:13.613Z,28.12
2019-01-05T20:45:59.413Z,33.35
2019-01-05T20:48:52.769Z,22.07
2019-01-05T20:51:38.877Z,14.45
2019-01-05T20:54:24.969Z,11.78
2019-01-05T20:57:15.411Z,2.60
2019-01-05T21:00:21.003Z,1.70
2019-01-05T21:03:12.121Z,1.52
2019-01-05T21:05:58.204Z,1.90
2019-01-05T21:08:44.650Z,2.90
2019-01-05T21:11:44.397Z,1.55
2019-01-05T21:14:30.469Z,2.17
2019-01-05T21:17:14.938Z,1.45
2019-01-05T21:20:01.986Z,2.75
2019-01-05T21:23:02.284Z,1.30
2019-01-05T21:25:54.359Z,1.47
2019-01-05T21:28:44.548Z,1.10
2019-01-05T21:31:30.645Z,1.65
2019-01-05T21:34:20.936Z,1.87
2019-01-05T21:37:26.900Z,2.10
2019-01-05T21:40:33.185Z,1.60
2019-01-05T21:43:11.639Z,3.62
2019-01-05T21:45:57.369Z,1.70
2019-01-05T21:48:48.435Z,1.65
2019-01-05T21:51:44.526Z,2.27
2019-01-05T21:54:30.334Z,21.10
2019-01-05T21:57:29.969Z,39.60
2019-01-05T22:00:15.916Z,32.70
2019-01-05T22:02:57.201Z,23.07
2019-01-05T22:05:50.654Z,12.73
2019-01-05T22:08:50.129Z,10.53
2019-01-05T22:11:33.662Z,9.93
2019-01-05T22:14:15.089Z,5.97
2019-01-05T22:17:01.071Z,6.67
2019-01-05T22:20:00.990Z,2.50
2019-01-05T22:22:39.364Z,3.50
2019-01-05T22:25:38.601Z,3.02
2019-01-05T22:28:25.061Z,3.33
2019-01-05T22:31:12.089Z,3.00
2019-01-05T22:33:58.689Z,4.37
2019-01-05T22:36:45.858Z,2.80
2019-01-05T22:39:33.074Z,2.43
2019-01-05T22:42:23.761Z,3.02
2019-01-05T22:45:09.871Z,4.10
2019-01-05T22:48:07.741Z,4.13
2019-01-05T22:50:54.361Z,2.90
2019-01-05T22:53:41.378Z,2.83
2019-01-05T22:56:41.037Z,4.05
2019-01-05T22:59:34.334Z,3.40
2019-01-05T23:02:24.598Z,4.00
2019-01-05T23:05:20.957Z,4.08
2019-01-05T23:08:07.386Z,5.10
2019-01-05T23:11:00.625Z,4.70
2019-01-05T23:13:50.613Z,5.10
2019-01-05T23:16:49.985Z,4.87
2019-01-05T23:19:36.394Z,5.70
2019-01-05T23:22:33.866Z,4.92
2019-01-05T23:25:20.806Z,5.97
2019-01-05T23:28:07.263Z,5.97
2019-01-05T23:30:57.920Z,7.40
2019-01-05T23:34:03.384Z,6.57
2019-01-05T23:36:50.514Z,7.92
2019-01-05T23:39:37.590Z,5.90
2019-01-05T23:42:29.275Z,5.95
2019-01-05T23:45:19.554Z,7.58
2019-01-05T23:48:06.133Z,6.67
2019-01-05T23:50:53.134Z,6.95
2019-01-05T23:53:39.020Z,6.70
2019-01-05T23:56:25.444Z,7.05
2019-01-05T23:59:11.046Z,6.37
